createdAt,value
2022-10-08T00:02:23.584Z,9.29
2022-10-08T00:07:30.739Z,9.24
2022-10-08T00:12:36.729Z,9.11
2022-10-08T00:17:44.075Z,9.06
2022-10-08T00:22:51.397Z,8.93
2022-10-08T00:27:59.872Z,8.86
2022-10-08T00:33:07.675Z,8.80
2022-10-08T00:38:15.441Z,8.67
2022-10-08T00:43:44.406Z,8.56
2022-10-08T00:48:54.754Z,8.48
2022-10-08T00:54:04.005Z,8.51
2022-10-08T00:59:14.614Z,8.45
2022-10-08T01:04:21.655Z,8.40
2022-10-08T01:09:35.692Z,8.37
2022-10-08T01:14:49.436Z,8.38
2022-10-08T01:20:27.969Z,8.41
2022-10-08T01:25:48.381Z,8.31
2022-10-08T01:31:01.445Z,8.22
2022-10-08T01:36:11.408Z,8.28
2022-10-08T01:41:21.973Z,8.26
2022-10-08T01:46:32.754Z,8.15
2022-10-08T01:51:47.397Z,8.05
2022-10-08T01:56:56.450Z,7.98
2022-10-08T02:02:09.656Z,7.93
2022-10-08T02:07:19.655Z,7.88
2022-10-08T02:12:27.065Z,7.85
2022-10-08T02:17:41.948Z,7.78
2022-10-08T02:22:59.039Z,7.67
2022-10-08T02:28:09.599Z,7.58
2022-10-08T02:33:23.770Z,7.50
2022-10-08T02:38:37.793Z,7.48
2022-10-08T02:43:49.227Z,7.40
2022-10-08T02:49:02.035Z,7.40
2022-10-08T02:54:10.708Z,7.40
2022-10-08T02:59:20.840Z,7.38
2022-10-08T03:04:32.854Z,7.35
2022-10-08T03:09:44.574Z,7.37
2022-10-08T03:14:53.352Z,7.40
2022-10-08T03:20:03.281Z,7.43
2022-10-08T03:25:11.325Z,7.46
2022-10-08T03:30:19.320Z,7.43
2022-10-08T03:35:27.133Z,7.33
2022-10-08T03:40:34.125Z,7.25
2022-10-08T03:45:50.290Z,7.14
2022-10-08T03:50:59.585Z,7.15
2022-10-08T03:56:08.846Z,7.18
2022-10-08T04:01:18.834Z,7.19
2022-10-08T04:06:26.618Z,7.18
2022-10-08T04:11:32.396Z,7.13
2022-10-08T04:16:39.510Z,7.08
2022-10-08T04:21:45.074Z,7.00
2022-10-08T04:26:52.488Z,6.89
2022-10-08T04:31:59.897Z,6.84
2022-10-08T04:37:07.189Z,6.85
2022-10-08T04:42:14.732Z,6.83
2022-10-08T04:47:22.010Z,6.86
2022-10-08T04:52:29.083Z,6.90
2022-10-08T04:57:36.014Z,6.94
2022-10-08T05:02:43.306Z,6.95
2022-10-08T05:07:50.655Z,7.00
2022-10-08T05:12:57.589Z,7.05
2022-10-08T05:18:04.700Z,7.07
2022-10-08T05:23:12.204Z,7.11
2022-10-08T05:28:19.276Z,7.16
2022-10-08T05:33:26.438Z,7.20
2022-10-08T05:38:35.345Z,7.21
2022-10-08T05:43:44.076Z,7.27
2022-10-08T05:48:55.161Z,7.35
2022-10-08T05:54:03.144Z,7.41
2022-10-08T05:59:17.739Z,7.49
2022-10-08T06:04:25.265Z,7.56
2022-10-08T06:09:33.032Z,7.60
2022-10-08T06:14:40.194Z,7.67
2022-10-08T06:19:50.771Z,7.74
2022-10-08T06:24:57.903Z,7.85
2022-10-08T06:30:05.704Z,7.94
2022-10-08T06:35:13.187Z,8.03
2022-10-08T06:40:21.428Z,8.12
2022-10-08T06:45:28.964Z,8.22
2022-10-08T06:50:39.706Z,8.34
2022-10-08T06:55:47.677Z,8.51
2022-10-08T07:01:04.109Z,8.70
2022-10-08T07:06:14.094Z,8.92
2022-10-08T07:11:22.399Z,9.14
2022-10-08T07:16:31.840Z,9.35
2022-10-08T07:21:39.097Z,9.56
2022-10-08T07:26:47.029Z,9.80
2022-10-08T07:31:54.748Z,10.08
2022-10-08T07:37:02.090Z,10.39
2022-10-08T07:42:10.179Z,10.72
2022-10-08T07:47:17.693Z,11.05
2022-10-08T07:52:24.891Z,11.37
2022-10-08T07:57:32.027Z,11.66
2022-10-08T08:02:39.383Z,11.93
2022-10-08T08:07:52.405Z,12.18
2022-10-08T08:13:00.439Z,12.41
2022-10-08T08:18:10.377Z,12.57
2022-10-08T08:23:18.957Z,12.71
2022-10-08T08:28:27.789Z,12.84
2022-10-08T08:33:35.473Z,12.97
2022-10-08T08:38:43.136Z,13.10
2022-10-08T08:43:58.725Z,13.24
2022-10-08T08:49:13.381Z,13.39
2022-10-08T08:54:23.589Z,13.52
2022-10-08T08:59:35.597Z,13.65
2022-10-08T09:04:50.121Z,13.79
2022-10-08T09:10:01.951Z,13.96
2022-10-08T09:15:22.684Z,14.18
2022-10-08T09:20:31.059Z,14.36
2022-10-08T09:25:49.180Z,14.48
2022-10-08T09:31:13.044Z,14.71
2022-10-08T09:36:32.570Z,14.96
2022-10-08T09:41:40.732Z,15.15
2022-10-08T09:46:49.532Z,15.33
2022-10-08T09:51:58.928Z,15.52
2022-10-08T09:57:08.033Z,15.66
2022-10-08T10:02:31.216Z,15.81
2022-10-08T10:07:45.946Z,15.98
2022-10-08T10:12:56.619Z,16.14
2022-10-08T10:18:13.717Z,16.27
2022-10-08T10:23:26.631Z,16.39
2022-10-08T10:28:42.098Z,16.51
2022-10-08T10:33:56.438Z,16.64
2022-10-08T10:39:10.367Z,16.75
2022-10-08T10:44:23.681Z,16.85
2022-10-08T10:49:38.614Z,16.94
2022-10-08T10:55:18.602Z,17.05
2022-10-08T11:00:29.066Z,17.21
2022-10-08T11:05:39.779Z,17.33
2022-10-08T11:11:02.531Z,17.44
2022-10-08T11:16:23.729Z,17.57
2022-10-08T11:21:49.839Z,17.71
2022-10-08T11:27:07.067Z,17.82
2022-10-08T11:32:16.591Z,17.92
2022-10-08T11:37:31.589Z,18.01
2022-10-08T11:42:48.887Z,18.05
2022-10-08T11:47:58.129Z,18.13
2022-10-08T11:53:20.364Z,18.20
2022-10-08T11:58:32.413Z,18.27
2022-10-08T12:03:46.457Z,18.32
2022-10-08T12:09:04.480Z,18.40
2022-10-08T12:14:46.565Z,18.47
2022-10-08T12:20:22.190Z,18.56
2022-10-08T12:25:39.223Z,18.62
2022-10-08T12:30:49.804Z,18.67
2022-10-08T12:36:05.380Z,18.76
2022-10-08T12:41:22.376Z,18.87
2022-10-08T12:46:32.980Z,18.96
2022-10-08T12:51:47.883Z,19.03
2022-10-08T12:56:55.697Z,19.09
2022-10-08T13:02:04.683Z,19.14
2022-10-08T13:07:28.725Z,19.17
2022-10-08T13:12:35.992Z,19.21
2022-10-08T13:17:43.467Z,19.25
2022-10-08T13:22:51.265Z,19.26
2022-10-08T13:28:15.934Z,19.28
2022-10-08T13:33:25.104Z,19.27
2022-10-08T13:38:37.479Z,19.26
2022-10-08T13:43:45.205Z,19.25
2022-10-08T13:48:52.818Z,19.22
2022-10-08T13:54:00.394Z,19.16
2022-10-08T13:59:08.025Z,19.12
2022-10-08T14:04:15.701Z,19.07
2022-10-08T14:09:25.816Z,19.03
2022-10-08T14:14:33.531Z,19.03
2022-10-08T14:19:40.969Z,19.00
2022-10-08T14:24:49.712Z,18.96
2022-10-08T14:29:57.494Z,18.91
2022-10-08T14:35:05.086Z,18.86
2022-10-08T14:40:19.177Z,18.80
2022-10-08T14:45:26.530Z,18.73
2022-10-08T14:50:34.428Z,18.66
2022-10-08T14:56:07.502Z,18.58
2022-10-08T15:01:09.391Z,18.50
2022-10-08T15:06:16.731Z,18.42
2022-10-08T15:11:24.520Z,18.33
2022-10-08T15:16:32.034Z,18.25
2022-10-08T15:21:39.967Z,18.17
2022-10-08T15:26:47.767Z,18.06
2022-10-08T15:31:55.133Z,17.95
2022-10-08T15:37:03.890Z,17.86
2022-10-08T15:42:15.236Z,17.76
2022-10-08T15:47:22.511Z,17.66
2022-10-08T15:52:29.912Z,17.56
2022-10-08T15:57:37.731Z,17.47
2022-10-08T16:02:45.384Z,17.38
2022-10-08T16:07:52.969Z,17.26
2022-10-08T16:13:00.393Z,17.16
2022-10-08T16:18:07.685Z,17.05
2022-10-08T16:23:15.841Z,16.95
2022-10-08T16:28:23.222Z,16.87
2022-10-08T16:33:31.091Z,16.77
2022-10-08T16:38:40.910Z,16.66
2022-10-08T16:43:50.351Z,16.59
2022-10-08T16:49:00.094Z,16.54
2022-10-08T16:54:09.870Z,16.47
2022-10-08T16:59:22.215Z,16.41
2022-10-08T17:04:39.659Z,16.26
2022-10-08T17:09:50.020Z,16.15
2022-10-08T17:14:58.383Z,16.05
2022-10-08T17:20:06.889Z,15.93
2022-10-08T17:25:14.819Z,15.85
2022-10-08T17:30:24.189Z,15.77
2022-10-08T17:35:32.406Z,15.68
2022-10-08T17:40:40.434Z,15.59
2022-10-08T17:45:51.021Z,15.54
2022-10-08T17:50:56.886Z,15.50
2022-10-08T17:56:07.039Z,15.46
2022-10-08T18:01:17.195Z,15.38
2022-10-08T18:06:26.020Z,15.29
2022-10-08T18:11:35.781Z,15.22
2022-10-08T18:16:47.829Z,15.10
2022-10-08T18:21:55.822Z,15.00
2022-10-08T18:27:03.676Z,14.95
2022-10-08T18:32:11.914Z,14.87
2022-10-08T18:37:20.913Z,14.81
2022-10-08T18:42:28.808Z,14.78
2022-10-08T18:47:35.967Z,14.76
2022-10-08T18:52:47.589Z,14.69
2022-10-08T18:57:56.812Z,14.61
2022-10-08T19:03:05.362Z,14.53
2022-10-08T19:08:13.072Z,14.46
2022-10-08T19:13:21.259Z,14.43
2022-10-08T19:18:28.383Z,14.42
2022-10-08T19:23:35.817Z,14.38
2022-10-08T19:28:47.054Z,14.32
2022-10-08T19:33:55.955Z,14.27
2022-10-08T19:39:05.859Z,14.25
2022-10-08T19:44:13.497Z,14.27
2022-10-08T19:49:21.151Z,14.26
2022-10-08T19:54:28.763Z,14.24
2022-10-08T19:59:36.284Z,14.22
2022-10-08T20:04:45.063Z,14.21
2022-10-08T20:09:52.478Z,14.21
2022-10-08T20:14:59.631Z,14.23
2022-10-08T20:20:31.202Z,14.24
2022-10-08T20:25:36.276Z,14.25
2022-10-08T20:30:44.619Z,14.25
2022-10-08T20:35:52.835Z,14.23
2022-10-08T20:41:00.838Z,14.19
2022-10-08T20:46:10.755Z,14.15
2022-10-08T20:51:20.169Z,14.13
2022-10-08T20:56:28.621Z,14.10
2022-10-08T21:01:38.257Z,14.06
2022-10-08T21:06:47.028Z,14.05
2022-10-08T21:11:56.448Z,14.03
2022-10-08T21:17:03.864Z,14.01
2022-10-08T21:22:10.967Z,13.99
2022-10-08T21:27:18.274Z,14.01
2022-10-08T21:32:25.488Z,14.02
2022-10-08T21:37:32.776Z,14.00
2022-10-08T21:42:40.284Z,13.98
2022-10-08T21:47:48.103Z,13.97
2022-10-08T21:52:56.164Z,13.95
2022-10-08T21:58:06.097Z,13.90
2022-10-08T22:03:13.503Z,13.87
2022-10-08T22:08:21.102Z,13.83
2022-10-08T22:13:28.404Z,13.81
2022-10-08T22:18:36.348Z,13.79
2022-10-08T22:23:44.108Z,13.75
2022-10-08T22:28:51.856Z,13.71
2022-10-08T22:33:59.524Z,13.70
2022-10-08T22:39:07.105Z,13.68
2022-10-08T22:44:14.110Z,13.65
2022-10-08T22:49:21.064Z,13.62
2022-10-08T22:54:28.037Z,13.60
2022-10-08T22:59:35.628Z,13.57
2022-10-08T23:04:43.840Z,13.55
2022-10-08T23:09:50.791Z,13.53
2022-10-08T23:14:57.981Z,13.50
2022-10-08T23:20:05.613Z,13.49
2022-10-08T23:25:13.991Z,13.47
2022-10-08T23:30:42.222Z,13.43
2022-10-08T23:35:47.344Z,13.39
2022-10-08T23:40:59.362Z,13.33
2022-10-08T23:46:08.318Z,13.30
2022-10-08T23:51:17.104Z,13.27
2022-10-08T23:56:25.516Z,13.26
